createdAt,value
2018-04-10T02:40:17.870Z,99.90
2018-04-10T02:42:45.355Z,99.90
2018-04-10T02:47:41.666Z,99.90
2018-04-10T02:50:09.143Z,99.90
2018-04-10T02:52:36.638Z,99.90
2018-04-10T02:55:04.873Z,99.90
2018-04-10T02:57:32.341Z,99.90
2018-04-10T03:04:57.463Z,99.90
2018-04-10T03:24:49.879Z,99.90
2018-04-10T06:28:45.192Z,99.90
2018-04-10T06:33:41.716Z,99.90
2018-04-10T06:36:09.224Z,99.90
2018-04-10T06:38:37.862Z,99.90
2018-04-10T06:41:05.359Z,99.90
2018-04-10T06:43:33.002Z,99.90
2018-04-10T06:46:00.483Z,99.90
2018-04-10T06:48:27.979Z,99.90
2018-04-10T06:50:55.451Z,99.90
2018-04-10T06:53:23.206Z,99.90
2018-04-10T06:55:50.723Z,99.90
2018-04-10T06:58:18.271Z,99.90
2018-04-10T07:00:47.294Z,99.90
2018-04-10T07:03:14.795Z,99.90
2018-04-10T07:05:42.271Z,99.90
2018-04-10T07:08:09.744Z,99.90
2018-04-10T07:10:37.247Z,99.90
2018-04-10T07:13:05.016Z,99.90
2018-04-10T07:15:32.491Z,99.90
2018-04-10T07:18:00.234Z,99.90
2018-04-10T07:20:27.864Z,99.90
2018-04-10T07:22:56.107Z,99.90
2018-04-10T07:25:23.599Z,99.90
2018-04-10T07:27:51.835Z,99.90
2018-04-10T07:30:19.329Z,99.90
2018-04-10T07:32:47.592Z,99.90
2018-04-10T07:35:15.850Z,99.90
2018-04-10T07:37:43.459Z,99.90
2018-04-10T07:40:10.972Z,99.90
2018-04-10T07:42:38.443Z,99.90
2018-04-10T07:45:06.685Z,99.90
2018-04-10T07:47:34.287Z,99.90
2018-04-10T07:50:02.532Z,99.90
2018-04-10T07:52:30.965Z,99.90
2018-04-10T07:54:58.463Z,99.90
2018-04-10T07:57:25.939Z,99.90
2018-04-10T07:59:53.542Z,99.90
2018-04-10T08:02:21.035Z,99.90
2018-04-10T08:04:48.552Z,99.90
2018-04-10T08:07:16.772Z,99.90
2018-04-10T08:09:44.264Z,99.90
2018-04-10T08:12:12.656Z,99.90
2018-04-10T08:14:40.139Z,99.90
2018-04-10T08:17:07.635Z,99.90
2018-04-10T08:19:35.939Z,99.90
2018-04-10T08:22:03.427Z,99.90
2018-04-10T08:24:30.959Z,99.90
2018-04-10T08:26:59.142Z,99.90
2018-04-10T08:29:26.619Z,99.90
2018-04-10T08:31:54.130Z,99.90
2018-04-10T08:34:22.379Z,99.90
2018-04-10T08:36:49.858Z,99.90
2018-04-10T08:39:18.275Z,99.90
2018-04-10T08:41:45.898Z,99.90
2018-04-10T08:44:14.148Z,99.90
2018-04-10T08:46:41.973Z,99.90
2018-04-10T08:49:09.468Z,99.90
2018-04-10T08:51:37.259Z,99.90
2018-04-10T08:54:05.520Z,99.90
2018-04-10T08:56:32.995Z,99.90
2018-04-10T08:59:01.238Z,99.90
2018-04-10T09:01:28.758Z,99.90
2018-04-10T09:03:56.228Z,99.90
2018-04-10T09:06:23.708Z,99.90
2018-04-10T09:08:51.203Z,99.90
2018-04-10T09:11:19.483Z,99.90
2018-04-10T09:13:47.727Z,99.90
2018-04-10T09:16:16.032Z,99.90
2018-04-10T09:18:43.580Z,99.90
2018-04-10T09:21:11.855Z,99.90
2018-04-10T09:23:40.127Z,99.90
2018-04-10T09:26:08.367Z,99.90
2018-04-10T09:28:35.863Z,99.90
2018-04-10T09:31:04.384Z,99.90
2018-04-10T09:33:31.859Z,99.90
2018-04-10T09:35:59.332Z,99.90
2018-04-10T09:38:27.164Z,99.90
2018-04-10T09:40:54.720Z,99.90
2018-04-10T09:43:22.243Z,99.90
2018-04-10T09:45:50.503Z,99.90
2018-04-10T09:48:17.975Z,99.90
2018-04-10T09:50:46.226Z,99.90
2018-04-10T09:53:13.728Z,99.90
2018-04-10T09:55:41.207Z,99.90
2018-04-10T09:58:08.687Z,99.90
2018-04-10T10:00:41.327Z,99.90
2018-04-10T10:03:08.811Z,99.90
2018-04-10T10:05:36.292Z,99.90
2018-04-10T10:08:05.344Z,99.90
2018-04-10T10:10:33.045Z,99.90
2018-04-10T10:20:30.311Z,95.40
2018-04-10T10:22:57.810Z,95.30
2018-04-10T10:25:25.304Z,94.10
2018-04-10T10:27:52.784Z,93.00
2018-04-10T10:30:20.438Z,93.50
2018-04-10T10:32:47.931Z,94.60
2018-04-10T10:35:15.426Z,91.50
2018-04-10T10:37:43.687Z,89.60
2018-04-10T10:40:11.960Z,89.90
2018-04-10T10:42:39.439Z,89.80
2018-04-10T10:45:06.931Z,87.60
2018-04-10T10:47:34.410Z,88.40
2018-04-10T10:50:01.880Z,90.00
2018-04-10T10:52:29.375Z,85.30
2018-04-10T10:54:56.912Z,86.80
2018-04-10T10:57:25.155Z,87.80
2018-04-10T10:59:52.743Z,87.70
2018-04-10T11:02:20.988Z,82.70
2018-04-10T11:04:48.471Z,82.20
2018-04-10T11:07:15.964Z,84.50
2018-04-10T11:09:43.439Z,82.90
2018-04-10T11:12:11.051Z,87.40
2018-04-10T11:14:38.648Z,84.80
2018-04-10T11:17:06.125Z,90.10
2018-04-10T11:19:33.600Z,82.60
2018-04-10T11:22:01.113Z,83.40
2018-04-10T11:24:28.595Z,84.30
2018-04-10T11:26:56.067Z,83.10
2018-04-10T11:29:23.659Z,83.00
2018-04-10T11:31:51.933Z,76.40
2018-04-10T11:34:19.641Z,76.40
2018-04-10T11:36:47.135Z,75.20
2018-04-10T11:39:14.611Z,71.70
2018-04-10T11:41:43.135Z,76.40
2018-04-10T11:44:10.628Z,76.50
2018-04-10T11:46:38.100Z,70.40
2018-04-10T11:49:05.571Z,69.70
2018-04-10T11:51:33.836Z,78.40
2018-04-10T11:54:02.092Z,76.50
2018-04-10T11:56:30.335Z,80.50
2018-04-10T11:58:57.827Z,80.60
2018-04-10T12:01:25.303Z,80.60
2018-04-10T12:03:53.575Z,80.30
2018-04-10T12:06:21.851Z,80.10
2018-04-10T12:08:50.379Z,80.40
2018-04-10T12:11:18.103Z,79.70
2018-04-10T12:13:46.379Z,78.90
2018-04-10T12:16:14.620Z,75.80
2018-04-10T12:18:42.096Z,75.70
2018-04-10T12:21:10.379Z,74.40
2018-04-10T12:23:38.630Z,67.50
2018-04-10T12:26:06.152Z,67.10
2018-04-10T12:28:33.656Z,68.80
2018-04-10T12:31:01.129Z,74.00
2018-04-10T12:33:29.520Z,77.10
2018-04-10T12:35:57.928Z,74.60
2018-04-10T12:38:25.539Z,74.60
2018-04-10T12:40:53.879Z,76.30
2018-04-10T12:43:21.366Z,75.50
2018-04-10T12:45:48.842Z,74.90
2018-04-10T12:48:17.149Z,70.70
2018-04-10T12:50:44.789Z,70.50
2018-04-10T12:53:12.584Z,67.40
2018-04-10T12:55:40.063Z,68.40
2018-04-10T12:58:07.572Z,66.50
2018-04-10T13:00:35.060Z,66.90
2018-04-10T13:03:02.548Z,68.90
2018-04-10T13:05:30.092Z,68.20
2018-04-10T13:07:57.944Z,63.50
2018-04-10T13:10:25.552Z,64.00
2018-04-10T13:12:53.811Z,66.30
2018-04-10T13:15:21.288Z,66.20
2018-04-10T13:17:49.527Z,66.40
2018-04-10T13:20:17.380Z,66.40
2018-04-10T13:22:44.856Z,67.60
2018-04-10T13:25:12.335Z,67.20
2018-04-10T13:27:40.599Z,68.30
2018-04-10T13:30:08.322Z,68.20
2018-04-10T13:32:35.875Z,66.70
2018-04-10T13:35:03.347Z,68.60
2018-04-10T13:37:30.820Z,69.50
2018-04-10T13:39:58.303Z,68.10
2018-04-10T13:42:26.567Z,70.30
2018-04-10T13:44:54.811Z,68.00
2018-04-10T13:47:22.355Z,68.10
2018-04-10T13:49:49.861Z,69.80
2018-04-10T13:52:17.341Z,68.20
2018-04-10T13:54:45.575Z,69.40
2018-04-10T13:57:13.164Z,69.30
2018-04-10T13:59:41.428Z,68.80
2018-04-10T14:02:08.995Z,68.80
2018-04-10T14:04:37.255Z,73.90
2018-04-10T14:07:04.737Z,73.90
2018-04-10T14:09:33.255Z,70.00
2018-04-10T14:12:00.816Z,70.10
2018-04-10T14:14:28.356Z,70.30
2018-04-10T14:16:55.831Z,71.20
2018-04-10T14:19:23.329Z,70.00
2018-04-10T14:21:50.803Z,71.40
2018-04-10T14:24:19.076Z,69.00
2018-04-10T14:26:47.331Z,71.80
2018-04-10T14:29:14.920Z,71.10
2018-04-10T14:31:43.191Z,72.80
2018-04-10T14:34:10.715Z,72.70
2018-04-10T14:36:38.191Z,72.00
2018-04-10T14:39:06.435Z,69.30
2018-04-10T14:41:33.992Z,69.20
2018-04-10T14:44:01.464Z,68.90
2018-04-10T14:46:28.935Z,68.50
2018-04-10T14:48:56.546Z,70.00
2018-04-10T14:51:24.024Z,68.30
2018-04-10T14:53:51.499Z,68.80
2018-04-10T14:56:19.000Z,69.10
2018-04-10T14:58:46.497Z,70.50
2018-04-10T15:01:13.971Z,69.10
2018-04-10T15:03:42.236Z,69.40
2018-04-10T15:06:09.980Z,69.40
2018-04-10T15:08:37.463Z,70.10
2018-04-10T15:11:04.963Z,70.30
2018-04-10T15:13:32.443Z,68.80
2018-04-10T15:15:59.915Z,69.90
2018-04-10T15:18:27.414Z,71.20
2018-04-10T15:20:55.664Z,79.60
2018-04-10T15:23:23.139Z,79.30
2018-04-10T15:25:50.853Z,81.10
2018-04-10T15:28:18.396Z,80.50
2018-04-10T15:30:45.883Z,82.30
2018-04-10T15:33:13.375Z,82.50
2018-04-10T15:35:40.851Z,83.20
2018-04-10T15:38:09.096Z,81.90
2018-04-10T15:40:36.587Z,81.90
2018-04-10T15:43:04.823Z,80.50
2018-04-10T15:45:32.296Z,80.50
2018-04-10T15:47:59.791Z,82.40
2018-04-10T15:50:27.270Z,83.00
2018-04-10T15:52:54.779Z,86.30
2018-04-10T15:55:23.036Z,90.00
2018-04-10T15:57:51.276Z,92.10
2018-04-10T16:00:18.756Z,92.10
2018-04-10T16:02:46.280Z,94.90
2018-04-10T16:05:13.747Z,96.70
2018-04-10T16:07:41.223Z,98.40
2018-04-10T16:10:08.723Z,99.90
2018-04-10T16:12:36.999Z,99.90
2018-04-10T16:15:05.236Z,99.90
2018-04-10T16:17:32.731Z,99.90
2018-04-10T16:20:00.976Z,99.90
2018-04-10T16:22:28.572Z,99.90
2018-04-10T16:24:57.083Z,99.90
2018-04-10T16:27:24.560Z,99.90
2018-04-10T16:29:52.051Z,99.90
2018-04-10T16:32:20.575Z,99.90
2018-04-10T16:34:48.059Z,99.90
2018-04-10T16:37:15.546Z,99.90
2018-04-10T16:39:43.856Z,99.90
2018-04-10T16:42:11.327Z,99.90
2018-04-10T16:44:38.803Z,99.90
2018-04-10T16:47:06.333Z,99.90
2018-04-10T16:49:33.812Z,99.90
2018-04-10T16:52:01.295Z,99.90
2018-04-10T16:54:28.791Z,99.90
2018-04-10T16:56:56.271Z,99.90
2018-04-10T16:59:23.782Z,99.90
2018-04-10T17:01:52.307Z,99.90
2018-04-10T17:04:19.791Z,99.90
2018-04-10T17:06:47.268Z,99.90
2018-04-10T17:09:14.862Z,99.90
2018-04-10T17:11:42.347Z,99.90
2018-04-10T17:14:09.824Z,99.90
2018-04-10T17:16:37.392Z,99.90
2018-04-10T17:19:05.175Z,99.90
2018-04-10T17:21:33.426Z,99.90
2018-04-10T17:24:00.923Z,99.90
2018-04-10T17:26:29.235Z,99.90
2018-04-10T17:28:56.711Z,99.90
2018-04-10T17:31:24.742Z,99.90
2018-04-10T17:33:52.819Z,99.90
2018-04-10T17:36:20.390Z,99.90
2018-04-10T17:38:48.145Z,99.90
2018-04-10T17:41:15.622Z,99.90
2018-04-10T17:43:43.115Z,99.90
2018-04-10T17:46:11.383Z,99.90
2018-04-10T17:48:39.707Z,99.90
2018-04-10T17:51:07.199Z,99.90
2018-04-10T17:53:34.691Z,99.90
2018-04-10T17:56:02.983Z,99.90
2018-04-10T17:58:30.771Z,99.90
2018-04-10T18:00:58.295Z,99.90
2018-04-10T18:03:26.532Z,99.90
2018-04-10T18:05:54.007Z,99.90
2018-04-10T18:08:22.299Z,99.90
2018-04-10T18:10:50.713Z,99.90
2018-04-10T18:13:18.499Z,99.90
2018-04-10T18:15:45.987Z,99.90
2018-04-10T18:18:14.265Z,99.90
2018-04-10T18:20:42.516Z,99.90
2018-04-10T18:23:10.016Z,99.90
2018-04-10T18:25:37.559Z,99.90
2018-04-10T18:28:05.808Z,99.90
2018-04-10T18:30:33.303Z,99.90
2018-04-10T18:33:01.548Z,99.90
2018-04-10T18:35:29.023Z,99.90
2018-04-10T18:37:57.299Z,99.90
2018-04-10T18:40:25.543Z,99.90
2018-04-10T18:42:53.283Z,99.90
2018-04-10T18:45:20.787Z,99.90
2018-04-10T18:47:48.259Z,99.90
2018-04-10T18:50:16.499Z,99.90
2018-04-10T18:52:44.181Z,99.90
2018-04-10T18:55:11.631Z,99.90
2018-04-10T18:57:40.175Z,99.90
2018-04-10T19:00:07.722Z,99.90
2018-04-10T19:02:35.227Z,99.90
2018-04-10T19:05:02.948Z,99.90
2018-04-10T19:07:30.444Z,99.90
2018-04-10T19:09:57.935Z,99.90
2018-04-10T19:12:25.454Z,99.90
2018-04-10T19:14:52.956Z,99.90
2018-04-10T19:17:20.429Z,99.90
2018-04-10T19:19:47.922Z,99.90
2018-04-10T19:22:15.444Z,99.90
2018-04-10T19:24:43.820Z,99.90
2018-04-10T19:27:11.292Z,99.90
2018-04-10T19:29:38.812Z,99.90
2018-04-10T19:32:06.507Z,99.90
2018-04-10T19:34:34.000Z,99.90
2018-04-10T19:37:01.524Z,99.90
2018-04-10T19:39:29.004Z,99.90
2018-04-10T19:41:56.494Z,99.90
2018-04-10T19:44:24.764Z,99.90
2018-04-10T19:46:53.080Z,99.90
2018-04-10T19:49:20.585Z,99.90
2018-04-10T19:51:48.104Z,99.90
2018-04-10T19:54:15.663Z,99.90
2018-04-10T19:56:43.135Z,99.90
2018-04-10T19:59:10.624Z,99.90
2018-04-10T20:01:38.867Z,99.90
2018-04-10T20:04:06.395Z,99.90
2018-04-10T20:06:33.888Z,99.90
2018-04-10T20:09:01.365Z,99.90
2018-04-10T20:11:28.838Z,99.90
2018-04-10T20:13:57.360Z,99.90
2018-04-10T20:16:25.640Z,99.90
2018-04-10T20:18:53.120Z,99.90
2018-04-10T20:21:20.713Z,99.90
2018-04-10T20:23:48.951Z,99.90
2018-04-10T20:26:16.434Z,99.90
2018-04-10T20:28:44.968Z,99.90
2018-04-10T20:31:12.439Z,99.90
2018-04-10T20:33:39.916Z,99.90
2018-04-10T20:36:07.412Z,99.90
2018-04-10T20:38:34.904Z,99.90
2018-04-10T20:41:02.397Z,99.90
2018-04-10T20:43:29.899Z,99.90
2018-04-10T20:45:57.375Z,99.90
2018-04-10T20:48:24.855Z,99.90
2018-04-10T20:50:52.351Z,99.90
2018-04-10T20:53:20.588Z,99.90
2018-04-10T20:55:48.071Z,99.90
2018-04-10T20:58:16.373Z,99.90
2018-04-10T21:00:43.837Z,99.90
2018-04-10T21:03:11.311Z,99.90
2018-04-10T21:05:38.812Z,99.90
2018-04-10T21:08:07.051Z,99.90
2018-04-10T21:10:34.527Z,99.90
2018-04-10T21:13:02.046Z,99.90
2018-04-10T21:15:29.528Z,99.90
2018-04-10T21:17:57.004Z,99.90
2018-04-10T21:20:25.275Z,99.90
2018-04-10T21:22:52.859Z,99.90
2018-04-10T21:25:21.103Z,99.90
2018-04-10T21:27:48.599Z,99.90
2018-04-10T21:30:16.843Z,99.90
2018-04-10T21:32:44.383Z,99.90
2018-04-10T21:35:11.880Z,99.90
2018-04-10T21:37:40.176Z,99.90
2018-04-10T21:40:07.715Z,99.90
2018-04-10T21:42:41.579Z,99.90
2018-04-10T21:45:09.051Z,99.90
2018-04-10T21:47:36.527Z,99.90
2018-04-10T21:50:05.692Z,99.90
2018-04-10T21:52:33.187Z,99.90
2018-04-10T21:55:01.675Z,99.90
2018-04-10T21:57:29.960Z,99.90
2018-04-10T21:59:58.183Z,99.90
2018-04-10T22:02:25.679Z,99.90
2018-04-10T22:04:53.977Z,99.90
2018-04-10T22:07:22.479Z,99.90
2018-04-10T22:09:49.967Z,99.90
2018-04-10T22:12:17.468Z,99.90
2018-04-10T22:14:45.012Z,99.90
2018-04-10T22:17:13.251Z,99.90
2018-04-10T22:19:40.747Z,99.90
2018-04-10T22:22:08.983Z,99.90
2018-04-10T22:24:36.483Z,99.90
2018-04-10T22:27:04.999Z,99.90
2018-04-10T22:29:32.520Z,99.90
2018-04-10T22:32:00.759Z,99.90
2018-04-10T22:34:28.661Z,99.90
2018-04-10T22:36:56.144Z,99.90
2018-04-10T22:39:23.619Z,99.90
2018-04-10T22:41:51.119Z,99.90
2018-04-10T22:44:18.659Z,99.90
2018-04-10T22:46:46.899Z,99.90
2018-04-10T22:49:14.395Z,99.90
2018-04-10T22:51:42.639Z,99.90
2018-04-10T22:54:10.467Z,99.90
2018-04-10T22:56:37.965Z,99.90
2018-04-10T22:59:06.266Z,99.90
2018-04-10T23:01:34.804Z,99.90
2018-04-10T23:04:02.408Z,99.90
2018-04-10T23:06:30.656Z,99.90
2018-04-10T23:08:58.396Z,99.90
2018-04-10T23:11:25.896Z,99.90
2018-04-10T23:13:53.376Z,99.90
2018-04-10T23:16:21.626Z,99.90
2018-04-10T23:18:49.125Z,99.90
2018-04-10T23:21:17.396Z,99.90
2018-04-10T23:23:45.644Z,99.90
2018-04-10T23:26:13.387Z,99.90
2018-04-10T23:28:40.872Z,99.90
2018-04-10T23:31:08.612Z,99.90
2018-04-10T23:33:36.112Z,99.90
2018-04-10T23:36:04.357Z,99.90
2018-04-10T23:38:31.836Z,99.90
2018-04-10T23:40:59.353Z,99.90
2018-04-10T23:43:26.828Z,99.90
2018-04-10T23:45:54.311Z,99.90
2018-04-10T23:48:21.809Z,99.90
2018-04-10T23:50:49.351Z,99.90
2018-04-10T23:53:17.600Z,99.90
2018-04-10T23:55:45.428Z,99.90
2018-04-10T23:58:12.944Z,99.90
